createdAt,value
2023-02-26T00:01:33.383Z,2.03
2023-02-26T00:04:03.689Z,2.47
2023-02-26T00:06:34.990Z,1.93
2023-02-26T00:09:03.580Z,2.30
2023-02-26T00:11:31.547Z,2.33
2023-02-26T00:13:58.901Z,2.30
2023-02-26T00:16:37.709Z,2.27
2023-02-26T00:19:10.196Z,2.10
2023-02-26T00:21:37.711Z,2.20
2023-02-26T00:24:06.715Z,2.33
2023-02-26T00:26:34.980Z,2.40
2023-02-26T00:29:03.867Z,2.13
2023-02-26T00:31:32.573Z,2.47
2023-02-26T00:34:00.113Z,2.70
2023-02-26T00:36:52.336Z,3.40
2023-02-26T00:39:59.759Z,3.83
2023-02-26T00:42:27.190Z,3.70
2023-02-26T00:44:54.506Z,3.67
2023-02-26T00:48:10.232Z,4.20
2023-02-26T00:50:43.082Z,4.10
2023-02-26T00:53:20.252Z,4.03
2023-02-26T00:55:47.244Z,3.77
2023-02-26T00:58:14.254Z,3.30
2023-02-26T01:00:41.264Z,2.80
2023-02-26T01:03:08.840Z,3.03
2023-02-26T01:05:36.877Z,2.90
2023-02-26T01:08:15.478Z,2.63
2023-02-26T01:10:43.094Z,2.30
2023-02-26T01:13:10.453Z,2.50
2023-02-26T01:15:38.130Z,2.47
2023-02-26T01:18:14.142Z,3.33
2023-02-26T01:21:04.019Z,3.20
2023-02-26T01:23:38.525Z,4.00
2023-02-26T01:26:28.260Z,4.23
2023-02-26T01:28:56.330Z,3.90
2023-02-26T01:31:48.619Z,3.70
2023-02-26T01:34:24.644Z,3.57
2023-02-26T01:37:04.361Z,4.03
2023-02-26T01:39:51.548Z,4.30
2023-02-26T01:42:25.906Z,3.83
2023-02-26T01:45:12.045Z,4.07
2023-02-26T01:47:55.727Z,3.73
2023-02-26T01:50:29.942Z,4.53
2023-02-26T01:53:20.147Z,3.63
2023-02-26T01:55:55.397Z,4.53
2023-02-26T01:58:24.679Z,4.13
2023-02-26T02:00:52.364Z,3.43
2023-02-26T02:03:21.940Z,3.60
2023-02-26T02:06:07.077Z,3.60
2023-02-26T02:08:35.906Z,3.20
2023-02-26T02:11:08.328Z,3.47
2023-02-26T02:13:53.664Z,3.40
2023-02-26T02:16:41.773Z,3.60
2023-02-26T02:19:53.315Z,3.47
2023-02-26T02:23:11.176Z,3.37
2023-02-26T02:26:14.645Z,3.33
2023-02-26T02:29:20.144Z,2.63
2023-02-26T02:31:57.249Z,3.10
2023-02-26T02:34:37.453Z,3.07
2023-02-26T02:37:20.855Z,2.90
2023-02-26T02:39:59.690Z,3.00
2023-02-26T02:42:36.071Z,2.80
2023-02-26T02:45:31.734Z,3.23
2023-02-26T02:48:10.544Z,3.60
2023-02-26T02:50:54.008Z,4.07
2023-02-26T02:53:53.205Z,4.00
2023-02-26T02:56:29.509Z,3.10
2023-02-26T02:59:22.145Z,3.03
2023-02-26T03:02:36.674Z,3.13
2023-02-26T03:05:04.042Z,3.20
2023-02-26T03:07:38.969Z,2.97
2023-02-26T03:10:07.277Z,3.43
2023-02-26T03:12:34.411Z,3.20
2023-02-26T03:15:02.152Z,3.70
2023-02-26T03:18:02.007Z,3.20
2023-02-26T03:21:04.758Z,3.77
2023-02-26T03:23:40.479Z,4.00
2023-02-26T03:26:19.118Z,4.70
2023-02-26T03:29:25.018Z,4.27
2023-02-26T03:32:16.151Z,4.20
2023-02-26T03:34:50.861Z,4.20
2023-02-26T03:37:35.814Z,4.13
2023-02-26T03:40:41.623Z,3.67
2023-02-26T03:43:20.491Z,3.60
2023-02-26T03:45:54.308Z,3.47
2023-02-26T03:48:27.701Z,3.37
2023-02-26T03:51:00.730Z,3.90
2023-02-26T03:53:34.715Z,3.13
2023-02-26T03:56:38.800Z,3.40
2023-02-26T03:59:06.057Z,3.70
2023-02-26T04:01:46.028Z,3.40
2023-02-26T04:04:31.760Z,4.37
2023-02-26T04:06:59.143Z,4.73
2023-02-26T04:09:26.660Z,4.40
2023-02-26T04:11:54.928Z,5.40
2023-02-26T04:14:21.959Z,4.53
2023-02-26T04:16:49.200Z,3.83
2023-02-26T04:19:16.298Z,3.80
2023-02-26T04:21:43.394Z,4.17
2023-02-26T04:24:11.032Z,3.67
2023-02-26T04:26:38.026Z,2.90
2023-02-26T04:29:05.105Z,2.30
2023-02-26T04:31:32.239Z,2.30
2023-02-26T04:33:59.253Z,2.87
2023-02-26T04:36:26.513Z,2.83
2023-02-26T04:38:53.939Z,2.80
2023-02-26T04:41:21.304Z,2.63
2023-02-26T04:43:48.530Z,3.53
2023-02-26T04:46:15.682Z,3.63
2023-02-26T04:48:42.895Z,3.33
2023-02-26T04:51:10.027Z,2.97
2023-02-26T04:53:37.032Z,3.30
2023-02-26T04:56:04.129Z,2.70
2023-02-26T04:58:31.162Z,2.73
2023-02-26T05:00:58.279Z,2.80
2023-02-26T05:03:25.343Z,2.10
2023-02-26T05:05:52.524Z,2.00
2023-02-26T05:08:19.637Z,2.50
2023-02-26T05:10:47.191Z,1.90
2023-02-26T05:13:14.359Z,2.00
2023-02-26T05:15:41.464Z,1.80
2023-02-26T05:18:08.518Z,1.73
2023-02-26T05:20:35.538Z,2.07
2023-02-26T05:23:02.645Z,2.00
2023-02-26T05:25:29.815Z,2.33
2023-02-26T05:27:57.037Z,2.13
2023-02-26T05:30:24.374Z,1.90
2023-02-26T05:32:51.449Z,1.90
2023-02-26T05:35:18.552Z,1.73
2023-02-26T05:37:45.567Z,1.97
2023-02-26T05:40:13.247Z,2.07
2023-02-26T05:42:40.688Z,2.50
2023-02-26T05:45:09.035Z,1.87
2023-02-26T05:47:36.891Z,2.07
2023-02-26T05:50:06.057Z,1.70
2023-02-26T05:52:33.557Z,1.70
2023-02-26T05:55:01.273Z,1.50
2023-02-26T05:57:28.614Z,1.60
2023-02-26T05:59:55.753Z,1.33
2023-02-26T06:02:22.823Z,1.30
2023-02-26T06:04:49.980Z,1.67
2023-02-26T06:07:17.061Z,1.23
2023-02-26T06:09:44.108Z,1.27
2023-02-26T06:12:11.089Z,0.93
2023-02-26T06:14:38.150Z,1.10
2023-02-26T06:17:06.800Z,1.00
2023-02-26T06:19:34.508Z,1.10
2023-02-26T06:22:01.528Z,1.10
2023-02-26T06:24:28.610Z,1.20
2023-02-26T06:26:55.621Z,1.50
2023-02-26T06:29:23.573Z,1.20
2023-02-26T06:31:50.728Z,1.33
2023-02-26T06:34:17.924Z,1.23
2023-02-26T06:36:45.394Z,1.30
2023-02-26T06:39:15.356Z,1.13
2023-02-26T06:41:42.441Z,1.20
2023-02-26T06:44:11.566Z,1.37
2023-02-26T06:46:38.735Z,1.50
2023-02-26T06:49:06.130Z,1.07
2023-02-26T06:51:33.589Z,1.30
2023-02-26T06:54:00.634Z,1.10
2023-02-26T06:56:27.999Z,1.30
2023-02-26T06:58:55.277Z,1.03
2023-02-26T07:01:22.334Z,1.20
2023-02-26T07:03:49.385Z,1.10
2023-02-26T07:06:27.039Z,1.50
2023-02-26T07:08:56.142Z,1.17
2023-02-26T07:11:23.309Z,1.67
2023-02-26T07:13:52.028Z,1.60
2023-02-26T07:16:19.386Z,1.13
2023-02-26T07:18:46.382Z,1.60
2023-02-26T07:21:13.432Z,1.07
2023-02-26T07:23:40.422Z,1.77
2023-02-26T07:26:09.102Z,1.60
2023-02-26T07:28:36.351Z,1.67
2023-02-26T07:31:03.708Z,1.33
2023-02-26T07:33:31.904Z,1.90
2023-02-26T07:35:58.966Z,1.77
2023-02-26T07:38:26.010Z,2.00
2023-02-26T07:40:56.542Z,1.67
2023-02-26T07:43:24.899Z,1.47
2023-02-26T07:45:53.384Z,1.97
2023-02-26T07:48:20.944Z,1.67
2023-02-26T07:50:48.111Z,1.70
2023-02-26T07:53:15.339Z,1.40
2023-02-26T07:55:42.488Z,1.60
2023-02-26T07:58:09.610Z,1.60
2023-02-26T08:00:36.736Z,1.40
2023-02-26T08:03:03.789Z,1.40
2023-02-26T08:05:30.847Z,1.30
2023-02-26T08:07:57.993Z,1.20
2023-02-26T08:10:25.137Z,1.40
2023-02-26T08:12:52.297Z,1.73
2023-02-26T08:15:19.530Z,1.30
2023-02-26T08:17:46.585Z,1.63
2023-02-26T08:20:15.365Z,1.40
2023-02-26T08:22:42.420Z,2.17
2023-02-26T08:25:09.696Z,2.00
2023-02-26T08:27:36.767Z,1.90
2023-02-26T08:30:05.565Z,1.40
2023-02-26T08:32:32.587Z,1.90
2023-02-26T08:34:59.656Z,1.30
2023-02-26T08:37:26.882Z,1.87
2023-02-26T08:39:54.332Z,1.50
2023-02-26T08:42:21.399Z,1.40
2023-02-26T08:44:48.509Z,1.40
2023-02-26T08:47:24.466Z,1.20
2023-02-26T08:49:55.163Z,1.40
2023-02-26T08:52:22.498Z,1.30
2023-02-26T08:54:49.565Z,1.30
2023-02-26T08:57:16.897Z,1.50
2023-02-26T08:59:44.024Z,1.20
2023-02-26T09:02:12.620Z,1.27
2023-02-26T09:04:39.970Z,1.20
2023-02-26T09:07:07.234Z,1.67
2023-02-26T09:09:34.290Z,1.23
2023-02-26T09:12:01.310Z,2.27
2023-02-26T09:14:28.461Z,2.33
2023-02-26T09:16:55.530Z,2.50
2023-02-26T09:19:22.786Z,1.73
2023-02-26T09:21:49.873Z,2.13
2023-02-26T09:24:17.062Z,2.60
2023-02-26T09:26:44.067Z,2.03
2023-02-26T09:29:11.604Z,2.30
2023-02-26T09:31:38.745Z,1.83
2023-02-26T09:34:05.994Z,1.80
2023-02-26T09:36:34.291Z,1.33
2023-02-26T09:39:01.284Z,1.50
2023-02-26T09:41:38.559Z,1.90
2023-02-26T09:44:25.659Z,1.97
2023-02-26T09:47:31.114Z,1.97
2023-02-26T09:50:02.080Z,2.00
2023-02-26T09:52:36.376Z,2.00
2023-02-26T09:55:11.516Z,2.90
2023-02-26T09:57:45.507Z,2.40
2023-02-26T10:00:29.149Z,2.20
2023-02-26T10:03:56.309Z,2.33
2023-02-26T10:07:14.751Z,2.00
2023-02-26T10:10:22.270Z,2.77
2023-02-26T10:12:52.582Z,2.83
2023-02-26T10:15:27.415Z,2.67
2023-02-26T10:18:12.626Z,2.63
2023-02-26T10:20:56.578Z,2.83
2023-02-26T10:23:39.125Z,2.23
2023-02-26T10:26:49.435Z,2.83
2023-02-26T10:29:43.669Z,3.20
2023-02-26T10:32:38.979Z,3.60
2023-02-26T10:35:12.277Z,2.70
2023-02-26T10:38:16.205Z,2.53
2023-02-26T10:41:02.243Z,2.13
2023-02-26T10:43:42.952Z,2.20
2023-02-26T10:46:32.517Z,2.33
2023-02-26T10:49:14.562Z,2.57
2023-02-26T10:51:42.111Z,2.07
2023-02-26T10:54:36.086Z,1.63
2023-02-26T10:57:04.165Z,1.67
2023-02-26T10:59:31.779Z,1.47
2023-02-26T11:02:00.403Z,1.90
2023-02-26T11:04:27.931Z,1.10
2023-02-26T11:07:01.918Z,1.00
2023-02-26T11:09:36.015Z,0.90
2023-02-26T11:12:12.789Z,1.17
2023-02-26T11:14:42.160Z,1.37
2023-02-26T11:17:22.247Z,1.23
2023-02-26T11:19:59.312Z,1.83
2023-02-26T11:22:32.913Z,1.37
2023-02-26T11:25:00.601Z,1.27
2023-02-26T11:27:35.140Z,1.23
2023-02-26T11:30:37.384Z,0.90
2023-02-26T11:33:38.226Z,1.60
2023-02-26T11:36:13.985Z,1.50
2023-02-26T11:38:45.889Z,1.67
2023-02-26T11:41:14.056Z,1.50
2023-02-26T11:43:45.362Z,2.30
2023-02-26T11:46:13.600Z,1.73
2023-02-26T11:48:53.480Z,1.60
2023-02-26T11:51:25.709Z,1.63
2023-02-26T11:53:55.379Z,1.30
2023-02-26T11:56:42.992Z,1.47
2023-02-26T11:59:24.769Z,1.63
2023-02-26T12:01:53.678Z,2.17
2023-02-26T12:04:26.732Z,2.70
2023-02-26T12:06:56.857Z,2.50
2023-02-26T12:09:26.438Z,3.00
2023-02-26T12:12:20.939Z,3.27
2023-02-26T12:15:01.395Z,3.10
2023-02-26T12:18:05.552Z,2.70
2023-02-26T12:21:13.426Z,2.53
2023-02-26T12:24:07.645Z,2.93
2023-02-26T12:27:06.779Z,2.53
2023-02-26T12:29:52.706Z,2.30
2023-02-26T12:32:48.649Z,2.30
2023-02-26T12:35:21.572Z,2.07
2023-02-26T12:37:54.456Z,1.67
2023-02-26T12:41:00.906Z,2.60
2023-02-26T12:44:05.496Z,1.93
2023-02-26T12:47:03.115Z,1.93
2023-02-26T12:50:07.123Z,1.90
2023-02-26T12:53:23.972Z,1.50
2023-02-26T12:56:36.783Z,1.37
2023-02-26T12:59:34.277Z,1.57
2023-02-26T13:02:18.400Z,1.57
2023-02-26T13:04:58.293Z,1.40
2023-02-26T13:07:49.974Z,1.60
2023-02-26T13:10:21.829Z,1.20
2023-02-26T13:13:18.270Z,1.10
2023-02-26T13:16:35.378Z,1.37
2023-02-26T13:19:34.684Z,1.20
2023-02-26T13:22:22.948Z,1.33
2023-02-26T13:25:07.077Z,1.30
2023-02-26T13:27:39.562Z,1.27
2023-02-26T13:30:22.425Z,1.50
2023-02-26T13:32:53.802Z,1.40
2023-02-26T13:35:33.735Z,1.10
2023-02-26T13:38:07.352Z,1.50
2023-02-26T13:41:06.592Z,1.97
2023-02-26T13:44:16.114Z,1.00
2023-02-26T13:47:21.351Z,1.67
2023-02-26T13:50:15.264Z,1.30
2023-02-26T13:52:53.976Z,1.43
2023-02-26T13:55:48.975Z,1.10
2023-02-26T13:58:33.890Z,1.67
2023-02-26T14:01:29.953Z,1.73
2023-02-26T14:04:28.674Z,1.53
2023-02-26T14:07:16.501Z,1.30
2023-02-26T14:10:15.066Z,1.20
2023-02-26T14:12:45.425Z,2.17
2023-02-26T14:15:12.295Z,2.03
2023-02-26T14:17:51.658Z,1.70
2023-02-26T14:20:27.927Z,2.40
2023-02-26T14:23:10.986Z,1.80
2023-02-26T14:25:40.888Z,1.43
2023-02-26T14:28:26.754Z,1.90
2023-02-26T14:31:17.611Z,1.60
2023-02-26T14:33:56.694Z,2.67
2023-02-26T14:36:47.011Z,2.40
2023-02-26T14:39:34.862Z,2.00
2023-02-26T14:42:14.636Z,2.33
2023-02-26T14:44:47.437Z,1.73
2023-02-26T14:47:14.777Z,1.93
2023-02-26T14:49:49.556Z,1.80
2023-02-26T14:52:32.703Z,1.80
2023-02-26T14:55:12.292Z,1.77
2023-02-26T14:58:01.357Z,1.60
2023-02-26T15:00:55.460Z,2.73
2023-02-26T15:03:34.784Z,1.60
2023-02-26T15:06:04.758Z,1.57
2023-02-26T15:08:55.111Z,1.83
2023-02-26T15:11:47.935Z,1.87
2023-02-26T15:14:25.722Z,2.10
2023-02-26T15:17:33.806Z,2.43
2023-02-26T15:20:40.807Z,2.60
2023-02-26T15:23:51.961Z,2.20
2023-02-26T15:26:26.500Z,1.90
2023-02-26T15:28:54.815Z,2.03
2023-02-26T15:31:31.796Z,1.83
2023-02-26T15:33:59.094Z,1.80
2023-02-26T15:36:29.124Z,2.10
2023-02-26T15:39:03.847Z,1.97
2023-02-26T15:41:32.621Z,2.17
2023-02-26T15:44:15.424Z,2.50
2023-02-26T15:46:47.389Z,2.40
2023-02-26T15:49:34.618Z,2.07
2023-02-26T15:52:03.342Z,2.50
2023-02-26T15:55:08.602Z,2.70
2023-02-26T15:57:36.811Z,2.60
2023-02-26T16:00:16.240Z,3.33
2023-02-26T16:02:45.779Z,2.37
2023-02-26T16:05:16.450Z,2.57
2023-02-26T16:07:43.490Z,2.77
2023-02-26T16:10:42.744Z,2.57
2023-02-26T16:13:17.878Z,3.50
2023-02-26T16:15:45.341Z,3.20
2023-02-26T16:18:22.922Z,2.87
2023-02-26T16:20:58.160Z,2.97
2023-02-26T16:23:53.843Z,2.70
2023-02-26T16:26:28.904Z,3.27
2023-02-26T16:29:02.619Z,3.23
2023-02-26T16:31:33.683Z,3.17
2023-02-26T16:34:22.318Z,3.80
2023-02-26T16:36:49.828Z,3.20
2023-02-26T16:39:29.660Z,3.20
2023-02-26T16:42:19.960Z,3.10
2023-02-26T16:44:58.018Z,3.47
2023-02-26T16:47:27.965Z,3.33
2023-02-26T16:49:55.041Z,4.10
2023-02-26T16:52:26.712Z,3.80
2023-02-26T16:55:00.610Z,3.30
2023-02-26T16:57:42.261Z,3.63
2023-02-26T17:00:29.711Z,3.80
2023-02-26T17:03:18.520Z,4.47
2023-02-26T17:06:00.534Z,4.37
2023-02-26T17:08:34.564Z,3.73
2023-02-26T17:11:18.151Z,4.00
2023-02-26T17:13:45.196Z,4.70
2023-02-26T17:16:13.968Z,4.23
2023-02-26T17:18:41.184Z,3.97
2023-02-26T17:21:10.182Z,4.60
2023-02-26T17:23:38.666Z,5.07
2023-02-26T17:26:06.297Z,4.57
2023-02-26T17:28:41.649Z,4.83
2023-02-26T17:31:09.512Z,4.97
2023-02-26T17:33:38.174Z,4.87
2023-02-26T17:36:05.948Z,4.30
2023-02-26T17:38:33.565Z,4.40
2023-02-26T17:41:00.892Z,4.53
2023-02-26T17:43:28.830Z,5.10
2023-02-26T17:45:56.211Z,4.80
2023-02-26T17:48:23.554Z,4.43
2023-02-26T17:50:54.955Z,5.00
2023-02-26T17:53:27.572Z,5.80
2023-02-26T17:55:56.613Z,4.60
2023-02-26T17:58:35.206Z,5.73
2023-02-26T18:01:04.582Z,6.50
2023-02-26T18:03:32.112Z,6.10
2023-02-26T18:05:59.705Z,5.90
2023-02-26T18:08:30.680Z,6.40
2023-02-26T18:10:59.993Z,8.40
2023-02-26T18:13:27.752Z,10.77
2023-02-26T18:15:58.043Z,10.67
2023-02-26T18:18:26.121Z,10.03
2023-02-26T18:20:53.759Z,8.90
2023-02-26T18:23:21.287Z,9.13
2023-02-26T18:25:52.135Z,9.63
2023-02-26T18:28:26.600Z,9.70
2023-02-26T18:30:55.027Z,9.60
2023-02-26T18:33:22.754Z,9.53
2023-02-26T18:35:55.099Z,7.90
2023-02-26T18:38:26.690Z,8.23
2023-02-26T18:40:54.443Z,8.70
2023-02-26T18:43:21.823Z,7.63
2023-02-26T18:45:52.323Z,7.83
2023-02-26T18:48:21.293Z,7.17
2023-02-26T18:50:49.216Z,6.43
2023-02-26T18:53:17.737Z,7.17
2023-02-26T18:55:45.276Z,7.00
2023-02-26T18:58:13.237Z,6.33
2023-02-26T19:00:40.492Z,8.10
2023-02-26T19:03:09.370Z,7.10
2023-02-26T19:05:37.616Z,7.87
2023-02-26T19:08:06.057Z,8.50
2023-02-26T19:10:34.306Z,7.10
2023-02-26T19:13:01.954Z,6.27
2023-02-26T19:15:29.128Z,5.93
2023-02-26T19:17:56.399Z,5.33
2023-02-26T19:20:23.443Z,4.93
2023-02-26T19:22:50.524Z,5.17
2023-02-26T19:25:27.030Z,4.17
2023-02-26T19:27:54.245Z,4.27
2023-02-26T19:30:23.614Z,4.10
2023-02-26T19:32:51.889Z,4.47
2023-02-26T19:35:19.671Z,4.17
2023-02-26T19:37:47.252Z,3.73
2023-02-26T19:40:19.613Z,3.60
2023-02-26T19:42:47.836Z,3.57
2023-02-26T19:45:16.020Z,3.73
2023-02-26T19:47:43.524Z,4.67
2023-02-26T19:50:11.590Z,4.77
2023-02-26T19:52:38.657Z,4.73
2023-02-26T19:55:08.276Z,4.80
2023-02-26T19:57:35.507Z,4.00
2023-02-26T20:00:03.383Z,3.80
2023-02-26T20:02:30.505Z,2.90
2023-02-26T20:04:57.633Z,2.70
2023-02-26T20:07:26.210Z,2.67
2023-02-26T20:09:53.240Z,2.77
2023-02-26T20:12:20.366Z,2.37
2023-02-26T20:14:47.534Z,2.53
2023-02-26T20:17:14.726Z,2.70
2023-02-26T20:19:41.807Z,2.70
2023-02-26T20:22:08.850Z,3.27
2023-02-26T20:24:36.397Z,3.07
2023-02-26T20:27:03.626Z,3.07
2023-02-26T20:29:30.837Z,3.50
2023-02-26T20:32:00.248Z,3.77
2023-02-26T20:34:27.426Z,3.90
2023-02-26T20:36:55.746Z,3.47
2023-02-26T20:39:23.641Z,3.93
2023-02-26T20:41:50.866Z,4.33
2023-02-26T20:44:18.266Z,4.10
2023-02-26T20:46:45.490Z,3.67
2023-02-26T20:49:12.846Z,3.37
2023-02-26T20:51:42.070Z,3.50
2023-02-26T20:54:14.674Z,3.63
2023-02-26T20:56:41.777Z,3.67
2023-02-26T20:59:09.674Z,3.53
2023-02-26T21:01:36.785Z,3.03
2023-02-26T21:04:07.173Z,3.50
2023-02-26T21:06:35.244Z,3.37
2023-02-26T21:09:04.129Z,3.20
2023-02-26T21:11:34.567Z,3.10
2023-02-26T21:14:04.272Z,2.73
2023-02-26T21:16:31.694Z,4.10
2023-02-26T21:19:00.372Z,3.13
2023-02-26T21:21:27.728Z,3.50
2023-02-26T21:23:55.395Z,4.70
2023-02-26T21:26:23.803Z,3.90
2023-02-26T21:28:51.034Z,3.30
2023-02-26T21:31:21.924Z,3.70
2023-02-26T21:33:49.401Z,4.13
2023-02-26T21:36:16.429Z,4.00
2023-02-26T21:38:43.532Z,3.20
2023-02-26T21:41:11.217Z,3.40
2023-02-26T21:43:38.377Z,3.80
2023-02-26T21:46:05.845Z,4.50
2023-02-26T21:48:33.114Z,4.13
2023-02-26T21:51:00.150Z,3.90
2023-02-26T21:53:28.227Z,4.10
2023-02-26T21:55:56.868Z,4.03
2023-02-26T21:58:25.452Z,4.37
2023-02-26T22:00:52.989Z,4.43
2023-02-26T22:03:20.139Z,3.63
2023-02-26T22:05:52.207Z,3.43
2023-02-26T22:08:19.744Z,4.50
2023-02-26T22:10:46.838Z,3.60
2023-02-26T22:13:14.391Z,3.57
2023-02-26T22:15:42.646Z,3.63
2023-02-26T22:18:09.715Z,3.60
2023-02-26T22:20:36.841Z,3.10
2023-02-26T22:23:04.718Z,3.77
2023-02-26T22:25:32.375Z,3.20
2023-02-26T22:27:59.724Z,3.60
2023-02-26T22:30:26.785Z,3.30
2023-02-26T22:32:53.841Z,3.07
2023-02-26T22:35:20.855Z,3.40
2023-02-26T22:37:47.905Z,4.10
2023-02-26T22:40:15.612Z,3.30
2023-02-26T22:42:44.025Z,4.10
2023-02-26T22:45:13.565Z,4.50
2023-02-26T22:47:40.750Z,3.70
2023-02-26T22:50:08.210Z,3.73
2023-02-26T22:52:35.448Z,3.43
2023-02-26T22:55:02.490Z,3.60
2023-02-26T22:57:30.196Z,3.70
2023-02-26T22:59:58.150Z,3.37
2023-02-26T23:02:25.829Z,3.67
2023-02-26T23:04:52.887Z,3.10
2023-02-26T23:07:20.634Z,3.67
2023-02-26T23:09:47.723Z,2.50
2023-02-26T23:12:14.857Z,2.90
2023-02-26T23:14:42.848Z,3.00
2023-02-26T23:17:11.519Z,2.33
2023-02-26T23:19:38.892Z,2.40
2023-02-26T23:22:06.346Z,2.80
2023-02-26T23:24:33.482Z,3.33
2023-02-26T23:27:00.655Z,3.07
2023-02-26T23:29:27.632Z,3.73
2023-02-26T23:31:54.931Z,3.40
2023-02-26T23:34:22.116Z,3.37
2023-02-26T23:36:49.093Z,3.33
2023-02-26T23:39:16.128Z,4.13
2023-02-26T23:41:43.167Z,3.83
2023-02-26T23:44:10.213Z,3.57
2023-02-26T23:46:37.662Z,3.87
2023-02-26T23:49:04.768Z,3.37
2023-02-26T23:51:31.814Z,3.60
2023-02-26T23:53:58.851Z,3.60
2023-02-26T23:56:25.888Z,3.83
2023-02-26T23:58:53.094Z,4.03
